Hlavní strana
METAR-TAF:

METAR-TAF

Letiště :

Tabarka, Tunisko

zeměpisná šířka: 36-57N, zeměpisná délka: 008-45E, výška: 20 m

Aktuální stav počasí

Zpráva byla vytvořena před 31 minutami, v 03:00 UTC
Severozápadní vítr 8 kt
Teplota 13°C
Vlhkost vzduchu 100%
Tlak 1015 hPa
Viditelnost: 8000 m
Polojasno ve výšce 2000 ft
Polojasno ve výšce 3000 ft

METAR: DTKA 040300Z 31008KT 8000 SCT020 SCT030 13/13 Q1015 NOSIG

Čas: 04:31 (03:31 UTC)

Předpověď počasí

Zpráva byla vytvořena před 3 hodinami a 31 minutami, v 00:00 UTC
Předpověď platná od 04 v 01 UTC do 04 v 10 UTC
Západoseverozápadní vítr 4 kt
Viditelnost: 8000 m
Polojasno ve výšce 2000 ft
Polojasno ve výšce 3000 ft
Pravděpodobnost 30% :
Dočasný
od 04 v 03 UTC do 04 v 07 UTC
Viditelnost: 4000 m
Skoro jasno ve výšce 2600 ft, Cumulonimbus.
Oblačno až skoro zataženo ve výšce 3000 ft
slabé dešťové přeháňky

TAF: DTKA 040000Z 0401/0410 30004KT 8000 SCT020 SCT030 PROB30 TEMPO 0403/0407 4000 -SHRA FEW026CB BKN030

Stav a předpovědi počasí z více než 4 000 letišť (zprávy METAR a TAF).

Červené a žluté tečky na mapě představují dostupné meteorologické stanice.

Když kurzor umístíte na tečku, zobrazí se název stanice.

Pak kliknutím zobrazíte stav a předpověď počasí.

Chcete-li změnit mapu, kliknutím na zelené tlačítko se znaménkem +mapu přiblížíte, kliknutím na zelené tlačítko se znaménkem – mapu oddálíte a kliknutím na zelené šipky přejdete na sousední mapy.


METAR-TAF: